createdAt,value
2022-11-29T00:01:12.027Z,14.95
2022-11-29T00:03:41.188Z,12.23
2022-11-29T00:06:12.003Z,14.05
2022-11-29T00:08:41.262Z,13.43
2022-11-29T00:11:11.130Z,19.65
2022-11-29T00:13:39.070Z,16.42
2022-11-29T00:16:08.615Z,14.48
2022-11-29T00:18:36.696Z,21.02
2022-11-29T00:21:08.124Z,13.00
2022-11-29T00:23:36.088Z,15.88
2022-11-29T00:26:05.454Z,14.25
2022-11-29T00:28:33.180Z,16.60
2022-11-29T00:31:00.999Z,13.07
2022-11-29T00:33:29.163Z,13.43
2022-11-29T00:35:56.973Z,13.52
2022-11-29T00:38:25.988Z,13.05
2022-11-29T00:40:53.675Z,18.30
2022-11-29T00:43:21.461Z,15.52
2022-11-29T00:45:49.160Z,14.07
2022-11-29T00:48:16.989Z,15.55
2022-11-29T00:50:44.737Z,12.30
2022-11-29T00:53:12.499Z,12.05
2022-11-29T00:55:41.692Z,15.07
2022-11-29T00:58:09.371Z,15.18
2022-11-29T01:00:37.066Z,12.73
2022-11-29T01:03:04.818Z,15.95
2022-11-29T01:05:33.009Z,13.85
2022-11-29T01:08:00.736Z,13.57
2022-11-29T01:10:28.935Z,20.38
2022-11-29T01:12:58.066Z,26.65
2022-11-29T01:15:25.897Z,14.25
2022-11-29T01:17:53.769Z,14.73
2022-11-29T01:20:21.838Z,17.90
2022-11-29T01:22:49.538Z,11.85
2022-11-29T01:25:19.266Z,15.20
2022-11-29T01:27:47.904Z,15.73
2022-11-29T01:30:17.219Z,15.30
2022-11-29T01:32:44.957Z,19.08
2022-11-29T01:35:12.704Z,13.35
2022-11-29T01:37:40.434Z,14.65
2022-11-29T01:40:09.449Z,16.08
2022-11-29T01:42:37.191Z,13.88
2022-11-29T01:45:16.897Z,17.35
2022-11-29T01:47:47.130Z,14.80
2022-11-29T01:50:15.624Z,14.38
2022-11-29T01:52:43.607Z,14.65
2022-11-29T01:55:11.545Z,19.98
2022-11-29T01:57:42.133Z,16.65
2022-11-29T02:00:14.238Z,16.55
2022-11-29T02:02:45.435Z,14.18
2022-11-29T02:05:16.704Z,14.80
2022-11-29T02:07:47.059Z,16.50
2022-11-29T02:10:16.532Z,16.10
2022-11-29T02:12:55.275Z,17.10
2022-11-29T02:15:34.416Z,15.38
2022-11-29T02:18:07.661Z,18.10
2022-11-29T02:21:11.036Z,13.48
2022-11-29T02:24:11.240Z,15.68
2022-11-29T02:27:12.837Z,15.27
2022-11-29T02:30:09.964Z,16.85
2022-11-29T02:33:15.656Z,13.95
2022-11-29T02:36:03.704Z,15.57
2022-11-29T02:38:51.183Z,13.73
2022-11-29T02:41:36.881Z,16.60
2022-11-29T02:44:24.392Z,17.88
2022-11-29T02:47:09.262Z,15.20
2022-11-29T02:50:00.193Z,13.40
2022-11-29T02:52:36.189Z,14.15
2022-11-29T02:55:10.518Z,16.98
2022-11-29T02:57:45.636Z,15.80
2022-11-29T03:00:18.962Z,15.00
2022-11-29T03:02:54.154Z,15.55
2022-11-29T03:05:30.518Z,12.93
2022-11-29T03:08:07.308Z,15.65
2022-11-29T03:10:44.242Z,14.20
2022-11-29T03:15:53.351Z,15.45
2022-11-29T03:26:09.645Z,16.27
2022-11-29T03:28:42.541Z,13.48
2022-11-29T03:31:16.980Z,18.08
2022-11-29T03:33:53.583Z,13.35
2022-11-29T03:36:32.212Z,13.68
2022-11-29T03:39:04.750Z,13.80
2022-11-29T03:41:39.065Z,14.70
2022-11-29T03:44:12.436Z,15.23
2022-11-29T03:46:47.387Z,13.73
2022-11-29T03:49:21.768Z,13.95
2022-11-29T03:51:59.682Z,14.23
2022-11-29T03:54:30.669Z,13.45
2022-11-29T03:56:59.027Z,14.23
2022-11-29T03:59:38.992Z,14.75
2022-11-29T04:02:32.622Z,16.65
2022-11-29T04:05:36.732Z,15.02
2022-11-29T04:08:33.524Z,17.70
2022-11-29T04:11:24.154Z,16.77
2022-11-29T04:14:28.779Z,16.92
2022-11-29T04:17:33.757Z,15.48
2022-11-29T04:20:26.819Z,15.52
2022-11-29T04:23:19.038Z,18.83
2022-11-29T04:26:27.772Z,18.13
2022-11-29T04:29:16.741Z,13.98
2022-11-29T04:32:03.900Z,13.30
2022-11-29T04:34:51.192Z,16.08
2022-11-29T04:37:46.284Z,14.50
2022-11-29T04:40:27.834Z,16.33
2022-11-29T04:43:11.498Z,15.10
2022-11-29T04:46:11.725Z,15.90
2022-11-29T04:48:52.440Z,16.48
2022-11-29T04:51:32.605Z,14.85
2022-11-29T04:54:09.790Z,15.93
2022-11-29T04:56:43.925Z,15.23
2022-11-29T04:59:19.560Z,13.63
2022-11-29T05:01:59.946Z,14.27
2022-11-29T05:04:37.242Z,15.68
2022-11-29T05:07:11.332Z,17.40
2022-11-29T05:09:51.092Z,16.42
2022-11-29T05:12:25.168Z,15.38
2022-11-29T05:15:15.502Z,17.50
2022-11-29T05:17:56.817Z,16.42
2022-11-29T05:20:35.417Z,15.82
2022-11-29T05:23:24.298Z,15.00
2022-11-29T05:25:58.202Z,16.58
2022-11-29T05:28:34.244Z,15.10
2022-11-29T05:31:20.201Z,16.33
2022-11-29T05:34:19.710Z,16.17
2022-11-29T05:36:56.834Z,17.40
2022-11-29T05:39:40.754Z,16.73
2022-11-29T05:42:36.921Z,15.82
2022-11-29T05:45:13.635Z,16.65
2022-11-29T05:47:51.049Z,13.23
2022-11-29T05:50:27.964Z,16.65
2022-11-29T05:53:03.096Z,18.75
2022-11-29T05:55:41.386Z,17.05
2022-11-29T05:58:17.303Z,16.95
2022-11-29T06:00:50.803Z,15.63
2022-11-29T06:03:30.554Z,18.52
2022-11-29T06:06:01.719Z,17.38
2022-11-29T06:08:37.953Z,18.70
2022-11-29T06:11:14.583Z,15.85
2022-11-29T06:13:52.069Z,17.02
2022-11-29T06:16:56.844Z,19.27
2022-11-29T06:20:04.223Z,19.08
2022-11-29T06:22:52.880Z,18.52
2022-11-29T06:25:38.211Z,17.25
2022-11-29T06:28:27.757Z,18.80
2022-11-29T06:31:02.138Z,22.35
2022-11-29T06:33:39.527Z,16.88
2022-11-29T06:36:16.867Z,16.92
2022-11-29T06:38:45.016Z,17.88
2022-11-29T06:41:18.627Z,19.85
2022-11-29T06:43:47.017Z,20.35
2022-11-29T06:46:24.871Z,19.60
2022-11-29T06:49:02.152Z,19.40
2022-11-29T06:51:37.996Z,18.55
2022-11-29T06:54:19.590Z,15.00
2022-11-29T06:56:56.760Z,15.23
2022-11-29T06:59:39.903Z,19.58
2022-11-29T07:02:35.580Z,15.00
2022-11-29T07:05:13.891Z,16.95
2022-11-29T07:07:43.431Z,16.25
2022-11-29T07:10:17.353Z,18.17
2022-11-29T07:12:45.991Z,18.27
2022-11-29T07:15:19.046Z,19.40
2022-11-29T07:18:11.246Z,20.77
2022-11-29T07:20:44.975Z,17.58
2022-11-29T07:23:29.507Z,18.45
2022-11-29T07:26:09.616Z,20.38
2022-11-29T07:28:55.757Z,16.38
2022-11-29T07:31:35.523Z,15.55
2022-11-29T07:34:14.336Z,18.42
2022-11-29T07:36:50.468Z,17.52
2022-11-29T07:39:30.310Z,15.05
2022-11-29T07:42:06.820Z,20.38
2022-11-29T07:44:40.093Z,17.45
2022-11-29T07:47:09.680Z,18.17
2022-11-29T07:49:37.466Z,20.63
2022-11-29T07:52:05.224Z,19.35
2022-11-29T07:54:34.292Z,20.05
2022-11-29T07:57:02.006Z,19.00
2022-11-29T07:59:29.660Z,19.58
2022-11-29T08:01:57.400Z,19.75
2022-11-29T08:04:25.226Z,19.27
2022-11-29T08:06:52.948Z,18.98
2022-11-29T08:09:20.742Z,17.80
2022-11-29T08:11:50.006Z,16.60
2022-11-29T08:14:17.730Z,17.98
2022-11-29T08:16:45.518Z,22.10
2022-11-29T08:19:13.341Z,17.23
2022-11-29T08:21:44.322Z,18.15
2022-11-29T08:24:12.030Z,16.42
2022-11-29T08:26:39.996Z,16.95
2022-11-29T08:29:09.394Z,18.08
2022-11-29T08:31:38.661Z,18.75
2022-11-29T08:34:07.227Z,17.42
2022-11-29T08:36:35.133Z,16.50
2022-11-29T08:39:08.997Z,17.50
2022-11-29T08:41:37.432Z,18.45
2022-11-29T08:44:06.036Z,15.48
2022-11-29T08:46:53.209Z,16.17
2022-11-29T08:49:20.970Z,15.80
2022-11-29T08:51:48.619Z,18.05
2022-11-29T08:54:15.338Z,14.43
2022-11-29T08:57:31.072Z,15.90
2022-11-29T08:59:30.730Z,16.35
2022-11-29T09:01:59.914Z,13.45
2022-11-29T09:04:27.762Z,14.80
2022-11-29T09:06:55.427Z,15.15
2022-11-29T09:09:23.140Z,14.43
2022-11-29T09:11:50.848Z,17.15
2022-11-29T09:14:19.923Z,16.67
2022-11-29T09:16:47.689Z,14.85
2022-11-29T09:19:16.947Z,17.35
2022-11-29T09:21:44.591Z,15.57
2022-11-29T09:24:12.286Z,15.30
2022-11-29T09:26:41.801Z,23.60
2022-11-29T09:29:10.224Z,18.00
2022-11-29T09:31:37.965Z,19.30
2022-11-29T09:34:05.702Z,17.23
2022-11-29T09:36:35.018Z,18.80
2022-11-29T09:39:03.692Z,22.27
2022-11-29T09:41:53.067Z,19.35
2022-11-29T09:44:27.947Z,20.05
2022-11-29T09:47:04.765Z,17.75
2022-11-29T09:52:34.970Z,26.75
2022-11-29T09:55:17.546Z,21.90
2022-11-29T09:57:46.248Z,23.83
2022-11-29T10:00:17.080Z,21.30
2022-11-29T10:02:49.504Z,24.38
2022-11-29T10:05:22.910Z,23.83
2022-11-29T10:07:57.622Z,23.25
2022-11-29T10:10:29.861Z,21.08
2022-11-29T10:13:06.216Z,25.15
2022-11-29T10:15:40.234Z,25.00
2022-11-29T10:18:19.836Z,20.50
2022-11-29T10:20:50.696Z,19.98
2022-11-29T10:23:25.002Z,22.27
2022-11-29T10:25:54.650Z,21.83
2022-11-29T10:28:25.829Z,23.73
2022-11-29T10:30:55.649Z,18.95
2022-11-29T10:33:26.663Z,20.85
2022-11-29T10:35:58.785Z,23.08
2022-11-29T10:38:31.797Z,24.98
2022-11-29T10:41:05.532Z,21.85
2022-11-29T10:43:33.294Z,20.65
2022-11-29T10:46:02.543Z,18.50
2022-11-29T10:48:33.994Z,22.80
2022-11-29T10:51:03.437Z,19.75
2022-11-29T10:53:37.091Z,19.85
2022-11-29T10:56:15.109Z,23.45
2022-11-29T10:58:56.433Z,22.55
2022-11-29T11:01:26.374Z,22.67
2022-11-29T11:03:56.377Z,21.85
2022-11-29T11:06:27.419Z,21.27
2022-11-29T11:08:58.529Z,20.60
2022-11-29T11:11:30.152Z,19.48
2022-11-29T11:14:02.478Z,21.85
2022-11-29T11:16:36.760Z,21.02
2022-11-29T11:19:26.289Z,22.83
2022-11-29T11:21:54.764Z,22.08
2022-11-29T11:24:26.195Z,23.23
2022-11-29T11:26:54.065Z,21.90
2022-11-29T11:29:26.567Z,23.52
2022-11-29T11:31:56.885Z,26.63
2022-11-29T11:34:34.184Z,20.27
2022-11-29T11:37:21.260Z,21.90
2022-11-29T11:39:52.286Z,25.77
2022-11-29T11:42:37.934Z,24.73
2022-11-29T11:45:22.032Z,23.90
2022-11-29T11:47:52.970Z,22.17
2022-11-29T11:50:29.361Z,22.33
2022-11-29T11:52:59.693Z,21.73
2022-11-29T11:55:34.258Z,25.65
2022-11-29T11:58:09.687Z,22.83
2022-11-29T12:03:37.339Z,23.45
2022-11-29T12:06:25.722Z,26.70
2022-11-29T12:08:58.561Z,24.33
2022-11-29T12:11:32.569Z,23.70
2022-11-29T12:14:03.202Z,24.65
2022-11-29T12:16:36.882Z,26.23
2022-11-29T12:19:14.768Z,27.67
2022-11-29T12:21:46.696Z,28.05
2022-11-29T12:24:22.673Z,28.20
2022-11-29T12:26:58.349Z,28.38
2022-11-29T12:29:30.170Z,28.67
2022-11-29T12:32:19.010Z,28.33
2022-11-29T12:35:12.656Z,28.58
2022-11-29T12:37:52.398Z,27.25
2022-11-29T12:40:27.337Z,26.52
2022-11-29T12:43:04.435Z,29.95
2022-11-29T12:45:46.176Z,27.60
2022-11-29T12:48:26.704Z,29.73
2022-11-29T12:51:03.495Z,28.75
2022-11-29T12:56:25.137Z,30.98
2022-11-29T12:59:13.343Z,29.08
2022-11-29T13:02:03.976Z,29.13
2022-11-29T13:04:39.886Z,27.98
2022-11-29T13:07:17.771Z,27.33
2022-11-29T13:10:06.064Z,25.88
2022-11-29T13:12:38.553Z,30.63
2022-11-29T13:15:15.697Z,28.50
2022-11-29T13:17:53.013Z,26.23
2022-11-29T13:20:31.745Z,24.33
2022-11-29T13:23:06.666Z,29.63
2022-11-29T13:25:38.605Z,28.30
2022-11-29T13:28:08.406Z,23.65
2022-11-29T13:30:39.670Z,22.60
2022-11-29T13:33:17.095Z,29.85
2022-11-29T13:35:52.193Z,28.55
2022-11-29T13:38:26.381Z,24.08
2022-11-29T13:40:59.200Z,25.42
2022-11-29T13:43:31.898Z,25.88
2022-11-29T13:46:16.069Z,26.08
2022-11-29T13:48:51.802Z,28.25
2022-11-29T13:51:29.466Z,26.45
2022-11-29T13:53:59.308Z,26.33
2022-11-29T13:56:32.640Z,24.55
2022-11-29T13:59:01.489Z,23.52
2022-11-29T14:01:30.668Z,26.25
2022-11-29T14:04:07.839Z,23.65
2022-11-29T14:06:37.719Z,32.13
2022-11-29T14:09:27.356Z,24.05
2022-11-29T14:12:05.058Z,29.52
2022-11-29T14:14:39.217Z,26.63
2022-11-29T14:17:48.737Z,27.60
2022-11-29T14:20:53.388Z,25.27
2022-11-29T14:23:43.142Z,23.67
2022-11-29T14:26:28.771Z,23.67
2022-11-29T14:28:57.770Z,26.77
2022-11-29T14:31:52.088Z,26.08
2022-11-29T14:34:38.939Z,23.88
2022-11-29T14:37:19.466Z,26.50
2022-11-29T14:39:48.923Z,28.20
2022-11-29T14:42:19.173Z,29.92
2022-11-29T14:44:52.181Z,25.95
2022-11-29T14:47:25.501Z,28.55
2022-11-29T14:49:56.788Z,25.13
2022-11-29T14:52:31.556Z,24.70
2022-11-29T14:55:05.968Z,25.67
2022-11-29T14:57:54.945Z,26.00
2022-11-29T15:00:24.391Z,27.48
2022-11-29T15:02:54.465Z,25.25
2022-11-29T15:05:30.482Z,25.00
2022-11-29T15:08:08.500Z,27.75
2022-11-29T15:10:40.163Z,30.13
2022-11-29T15:13:13.246Z,28.23
2022-11-29T15:16:04.257Z,32.80
2022-11-29T15:18:59.689Z,27.38
2022-11-29T15:21:34.471Z,29.95
2022-11-29T15:24:10.393Z,30.45
2022-11-29T15:26:38.137Z,25.97
2022-11-29T15:29:15.569Z,30.73
2022-11-29T15:31:44.732Z,27.27
2022-11-29T15:34:28.533Z,25.50
2022-11-29T15:36:57.700Z,27.35
2022-11-29T15:39:28.574Z,26.35
2022-11-29T15:42:01.685Z,29.10
2022-11-29T15:44:32.559Z,27.77
2022-11-29T15:47:16.643Z,25.58
2022-11-29T15:49:44.469Z,27.13
2022-11-29T15:52:20.637Z,34.08
2022-11-29T15:54:53.193Z,28.38
2022-11-29T15:57:26.640Z,30.75
2022-11-29T15:59:56.970Z,28.10
2022-11-29T16:02:27.725Z,27.48
2022-11-29T16:04:58.989Z,31.73
2022-11-29T16:07:32.357Z,27.38
2022-11-29T16:10:05.167Z,28.48
2022-11-29T16:12:33.319Z,29.20
2022-11-29T16:15:02.128Z,27.02
2022-11-29T16:17:32.729Z,32.38
2022-11-29T16:20:23.476Z,27.70
2022-11-29T16:23:05.945Z,28.55
2022-11-29T16:25:37.558Z,29.17
2022-11-29T16:28:06.957Z,29.33
2022-11-29T16:30:34.728Z,34.17
2022-11-29T16:33:03.874Z,28.92
2022-11-29T16:35:33.856Z,25.83
2022-11-29T16:38:05.676Z,26.67
2022-11-29T16:40:35.682Z,30.95
2022-11-29T16:43:09.279Z,22.58
2022-11-29T16:45:38.516Z,28.98
2022-11-29T16:48:29.649Z,26.83
2022-11-29T16:51:16.171Z,31.80
2022-11-29T16:53:47.788Z,27.75
2022-11-29T16:56:17.763Z,27.25
2022-11-29T16:59:25.740Z,23.95
2022-11-29T17:01:36.339Z,28.73
2022-11-29T17:04:04.138Z,29.50
2022-11-29T17:06:31.992Z,31.50
2022-11-29T17:09:01.093Z,29.00
2022-11-29T17:11:28.871Z,26.73
2022-11-29T17:13:56.685Z,22.15
2022-11-29T17:16:25.859Z,28.90
2022-11-29T17:18:53.883Z,30.08
2022-11-29T17:21:23.966Z,29.33
2022-11-29T17:23:52.308Z,30.80
2022-11-29T17:26:22.326Z,30.20
2022-11-29T17:28:51.750Z,31.40
2022-11-29T17:31:21.544Z,28.05
2022-11-29T17:33:49.754Z,30.27
2022-11-29T17:36:19.313Z,32.13
2022-11-29T17:38:47.394Z,27.60
2022-11-29T17:41:17.268Z,30.23
2022-11-29T17:43:46.264Z,29.83
2022-11-29T17:46:15.856Z,29.02
2022-11-29T17:48:46.197Z,32.63
2022-11-29T17:51:43.570Z,29.70
2022-11-29T17:54:04.367Z,28.25
2022-11-29T17:56:32.217Z,27.23
2022-11-29T17:59:03.463Z,30.42
2022-11-29T18:01:33.387Z,28.55
2022-11-29T18:04:02.509Z,25.38
2022-11-29T18:06:31.826Z,34.03
2022-11-29T18:09:01.366Z,28.05
2022-11-29T18:11:30.686Z,31.80
2022-11-29T18:13:59.636Z,29.67
2022-11-29T18:16:30.487Z,30.92
2022-11-29T18:19:00.618Z,33.40
2022-11-29T18:21:28.927Z,29.65
2022-11-29T18:23:56.774Z,30.08
2022-11-29T18:26:26.353Z,30.48
2022-11-29T18:28:54.278Z,29.60
2022-11-29T18:31:23.837Z,30.50
2022-11-29T18:33:54.995Z,28.30
2022-11-29T18:36:24.364Z,25.92
2022-11-29T18:38:56.685Z,31.40
2022-11-29T18:41:25.677Z,31.67
2022-11-29T18:43:57.824Z,30.67
2022-11-29T18:46:26.289Z,37.75
2022-11-29T18:48:55.436Z,31.98
2022-11-29T18:51:23.081Z,30.30
2022-11-29T18:53:50.736Z,32.58
2022-11-29T18:56:22.127Z,33.08
2022-11-29T18:58:58.197Z,33.63
2022-11-29T19:01:27.971Z,32.58
2022-11-29T19:03:59.573Z,30.95
2022-11-29T19:06:32.839Z,30.58
2022-11-29T19:09:06.212Z,34.20
2022-11-29T19:11:34.508Z,32.17
2022-11-29T19:14:04.520Z,29.30
2022-11-29T19:16:34.825Z,36.00
2022-11-29T19:19:04.293Z,34.60
2022-11-29T19:21:34.390Z,32.42
2022-11-29T19:24:03.942Z,29.75
2022-11-29T19:26:32.813Z,31.08
2022-11-29T19:29:02.107Z,34.15
2022-11-29T19:31:30.283Z,34.25
2022-11-29T19:33:58.739Z,28.15
2022-11-29T19:36:29.209Z,35.17
2022-11-29T19:38:57.625Z,35.20
2022-11-29T19:41:26.935Z,34.50
2022-11-29T19:43:54.904Z,32.05
2022-11-29T19:46:24.936Z,33.30
2022-11-29T19:48:53.638Z,34.08
2022-11-29T19:51:22.381Z,42.72
2022-11-29T19:53:53.403Z,43.70
2022-11-29T19:56:21.897Z,39.92
2022-11-29T19:58:49.855Z,41.15
2022-11-29T20:01:20.260Z,44.25
2022-11-29T20:03:48.029Z,45.95
2022-11-29T20:06:16.781Z,42.35
2022-11-29T20:08:45.304Z,38.83
2022-11-29T20:11:16.347Z,41.13
2022-11-29T20:13:46.623Z,39.28
2022-11-29T20:16:15.716Z,40.55
2022-11-29T20:18:50.376Z,47.00
2022-11-29T20:21:21.742Z,36.63
2022-11-29T20:23:49.876Z,50.75
2022-11-29T20:26:21.184Z,41.85
2022-11-29T20:28:48.925Z,40.40
2022-11-29T20:31:21.247Z,46.75
2022-11-29T20:33:50.796Z,43.45
2022-11-29T20:36:29.781Z,48.33
2022-11-29T20:39:04.951Z,50.22
2022-11-29T20:41:42.606Z,45.67
2022-11-29T20:44:15.689Z,47.83
2022-11-29T20:46:43.691Z,47.13
2022-11-29T20:49:14.250Z,47.95
2022-11-29T20:51:50.471Z,46.42
2022-11-29T20:54:20.293Z,46.25
2022-11-29T20:56:49.315Z,50.38
2022-11-29T20:59:17.172Z,50.03
2022-11-29T21:01:44.884Z,52.63
2022-11-29T21:04:12.590Z,49.95
2022-11-29T21:06:40.792Z,60.33
2022-11-29T21:09:08.794Z,54.65
2022-11-29T21:11:36.964Z,45.80
2022-11-29T21:14:09.078Z,46.85
2022-11-29T21:16:37.152Z,43.03
2022-11-29T21:19:05.596Z,49.63
2022-11-29T21:21:38.724Z,48.25
2022-11-29T21:24:13.107Z,52.88
2022-11-29T21:26:45.697Z,51.42
2022-11-29T21:29:17.185Z,46.90
2022-11-29T21:31:45.660Z,52.13
2022-11-29T21:34:13.395Z,47.47
2022-11-29T21:36:41.817Z,43.90
2022-11-29T21:39:13.481Z,46.40
2022-11-29T21:41:41.487Z,49.50
2022-11-29T21:44:09.276Z,43.17
2022-11-29T21:46:38.380Z,54.13
2022-11-29T21:49:06.232Z,47.42
2022-11-29T21:51:34.576Z,48.00
2022-11-29T21:54:02.704Z,44.35
2022-11-29T21:56:30.411Z,44.50
2022-11-29T21:58:58.127Z,49.13
2022-11-29T22:01:27.191Z,51.80
2022-11-29T22:03:56.822Z,44.85
2022-11-29T22:06:26.143Z,51.28
2022-11-29T22:08:53.863Z,48.28
2022-11-29T22:11:31.499Z,46.70
2022-11-29T22:14:16.197Z,49.97
2022-11-29T22:16:48.195Z,45.28
2022-11-29T22:19:18.668Z,47.15
2022-11-29T22:21:48.130Z,44.55
2022-11-29T22:24:17.397Z,54.75
2022-11-29T22:26:45.389Z,51.10
2022-11-29T22:29:14.685Z,50.63
2022-11-29T22:31:43.741Z,48.03
2022-11-29T22:34:12.411Z,48.75
2022-11-29T22:36:42.321Z,45.50
2022-11-29T22:39:12.621Z,48.63
2022-11-29T22:41:41.258Z,49.90
2022-11-29T22:44:08.967Z,54.10
2022-11-29T22:46:36.745Z,51.10
2022-11-29T22:49:04.781Z,50.35
2022-11-29T22:51:34.750Z,47.08
2022-11-29T22:54:05.622Z,54.67
2022-11-29T22:56:35.038Z,52.15
2022-11-29T22:59:02.856Z,47.00
2022-11-29T23:01:32.436Z,44.45
2022-11-29T23:04:03.927Z,43.22
2022-11-29T23:06:33.787Z,48.25
2022-11-29T23:09:07.774Z,45.22
2022-11-29T23:11:35.471Z,53.45
2022-11-29T23:14:03.373Z,43.10
2022-11-29T23:16:32.712Z,52.60
2022-11-29T23:19:01.128Z,43.00
2022-11-29T23:21:30.477Z,50.40
2022-11-29T23:24:00.803Z,40.70
2022-11-29T23:26:33.865Z,43.75
2022-11-29T23:29:01.537Z,45.85
2022-11-29T23:31:29.644Z,40.60
2022-11-29T23:33:57.366Z,41.20
2022-11-29T23:36:25.032Z,45.75
2022-11-29T23:38:52.869Z,39.72
2022-11-29T23:41:20.629Z,41.25
2022-11-29T23:43:49.633Z,44.03
2022-11-29T23:46:19.247Z,47.55
2022-11-29T23:48:48.463Z,41.42
2022-11-29T23:51:17.075Z,46.33
2022-11-29T23:53:44.843Z,39.03
2022-11-29T23:56:14.834Z,42.78
2022-11-29T23:58:43.442Z,48.42
